createdAt,value
2022-07-28T00:00:40.975Z,66.25
2022-07-28T00:03:07.391Z,66.42
2022-07-28T00:05:34.449Z,66.41
2022-07-28T00:08:01.026Z,67.36
2022-07-28T00:10:27.480Z,67.29
2022-07-28T00:12:53.886Z,68.01
2022-07-28T00:15:20.529Z,67.35
2022-07-28T00:17:46.890Z,67.62
2022-07-28T00:20:13.352Z,67.38
2022-07-28T00:22:43.967Z,68.13
2022-07-28T00:25:11.531Z,68.01
2022-07-28T00:27:38.429Z,68.14
2022-07-28T00:30:07.129Z,68.42
2022-07-28T00:32:33.882Z,68.63
2022-07-28T00:35:00.651Z,68.48
2022-07-28T00:37:28.931Z,68.32
2022-07-28T00:39:55.316Z,68.36
2022-07-28T00:42:21.793Z,68.03
2022-07-28T00:44:48.266Z,68.05
2022-07-28T00:47:14.869Z,68.42
2022-07-28T00:49:41.324Z,67.61
2022-07-28T00:52:09.321Z,67.56
2022-07-28T00:54:36.748Z,68.21
2022-07-28T00:57:03.191Z,68.20
2022-07-28T00:59:30.945Z,68.19
2022-07-28T01:02:01.209Z,68.55
2022-07-28T01:04:28.413Z,68.62
2022-07-28T01:07:18.863Z,68.62
2022-07-28T01:09:56.409Z,68.62
2022-07-28T01:12:49.215Z,68.09
2022-07-28T01:15:25.293Z,68.82
2022-07-28T01:18:02.555Z,68.36
2022-07-28T01:20:35.589Z,68.86
2022-07-28T01:23:23.702Z,69.37
2022-07-28T01:26:21.145Z,69.56
2022-07-28T01:29:00.901Z,69.86
2022-07-28T01:31:36.387Z,70.21
2022-07-28T01:34:15.085Z,70.00
2022-07-28T01:36:45.691Z,69.65
2022-07-28T01:39:15.044Z,69.92
2022-07-28T01:41:43.942Z,70.35
2022-07-28T01:44:20.200Z,69.83
2022-07-28T01:46:48.005Z,70.61
2022-07-28T01:49:16.597Z,70.40
2022-07-28T01:51:44.528Z,70.61
2022-07-28T01:54:12.695Z,71.36
2022-07-28T01:56:41.355Z,71.21
2022-07-28T01:59:11.808Z,71.13
2022-07-28T02:01:43.143Z,71.76
2022-07-28T02:04:11.725Z,72.22
2022-07-28T02:06:39.132Z,72.46
2022-07-28T02:09:07.641Z,72.08
2022-07-28T02:11:42.525Z,72.54
2022-07-28T02:14:13.300Z,72.68
2022-07-28T02:16:44.185Z,73.22
2022-07-28T02:19:13.199Z,73.24
2022-07-28T02:21:40.609Z,73.17
2022-07-28T02:24:09.010Z,72.66
2022-07-28T02:26:45.786Z,73.11
2022-07-28T02:29:33.412Z,72.95
2022-07-28T02:32:29.174Z,72.90
2022-07-28T02:35:00.898Z,73.37
2022-07-28T02:37:34.760Z,73.57
2022-07-28T02:40:02.971Z,72.87
2022-07-28T02:42:34.041Z,72.87
2022-07-28T02:45:04.006Z,73.46
2022-07-28T02:47:34.942Z,73.07
2022-07-28T02:50:03.551Z,73.31
2022-07-28T02:52:32.725Z,73.41
2022-07-28T02:55:00.753Z,73.81
2022-07-28T02:57:28.593Z,73.89
2022-07-28T02:59:55.887Z,74.57
2022-07-28T03:02:22.914Z,74.72
2022-07-28T03:04:58.720Z,74.01
2022-07-28T03:07:33.370Z,74.80
2022-07-28T03:10:00.341Z,75.01
2022-07-28T03:12:27.413Z,74.67
2022-07-28T03:14:54.031Z,75.18
2022-07-28T03:17:20.663Z,75.15
2022-07-28T03:19:47.110Z,75.36
2022-07-28T03:22:13.859Z,75.07
2022-07-28T03:24:44.388Z,75.53
2022-07-28T03:27:28.310Z,75.66
2022-07-28T03:30:05.061Z,75.43
2022-07-28T03:32:34.297Z,76.12
2022-07-28T03:35:01.002Z,76.23
2022-07-28T03:37:35.444Z,76.27
2022-07-28T03:40:03.138Z,75.79
2022-07-28T03:42:30.765Z,76.68
2022-07-28T03:44:57.371Z,76.76
2022-07-28T03:47:24.251Z,78.61
2022-07-28T03:49:50.965Z,78.20
2022-07-28T03:52:18.461Z,78.40
2022-07-28T03:54:45.602Z,79.05
2022-07-28T03:57:12.107Z,79.13
2022-07-28T03:59:38.726Z,79.32
2022-07-28T04:02:05.165Z,80.35
2022-07-28T04:04:31.589Z,79.75
2022-07-28T04:06:58.058Z,81.72
2022-07-28T04:09:24.421Z,82.07
2022-07-28T04:11:50.850Z,81.49
2022-07-28T04:14:18.135Z,81.28
2022-07-28T04:16:44.899Z,82.59
2022-07-28T04:19:11.481Z,81.43
2022-07-28T04:21:37.946Z,82.55
2022-07-28T04:24:04.689Z,82.91
2022-07-28T04:26:31.083Z,83.59
2022-07-28T04:29:03.336Z,82.99
2022-07-28T04:31:30.119Z,83.90
2022-07-28T04:33:56.674Z,84.37
2022-07-28T04:36:23.034Z,83.61
2022-07-28T04:38:49.401Z,82.37
2022-07-28T04:41:15.769Z,83.86
2022-07-28T04:43:42.632Z,83.58
2022-07-28T04:46:11.998Z,84.54
2022-07-28T04:48:41.482Z,84.75
2022-07-28T04:51:07.906Z,84.33
2022-07-28T04:53:34.306Z,84.58
2022-07-28T04:56:00.710Z,83.55
2022-07-28T04:58:30.861Z,82.93
2022-07-28T05:00:57.538Z,83.32
2022-07-28T05:03:23.979Z,81.90
2022-07-28T05:05:54.316Z,81.36
2022-07-28T05:08:22.504Z,80.86
2022-07-28T05:10:52.738Z,81.12
2022-07-28T05:13:19.219Z,79.81
2022-07-28T05:15:46.149Z,78.89
2022-07-28T05:18:12.472Z,78.66
2022-07-28T05:20:38.835Z,78.12
2022-07-28T05:23:05.356Z,77.80
2022-07-28T05:25:31.834Z,78.00
2022-07-28T05:27:58.254Z,79.00
2022-07-28T05:30:25.112Z,79.46
2022-07-28T05:32:53.706Z,78.38
2022-07-28T05:35:20.272Z,77.37
2022-07-28T05:37:46.649Z,76.70
2022-07-28T05:40:15.542Z,76.92
2022-07-28T05:42:43.329Z,78.25
2022-07-28T05:45:16.453Z,78.40
2022-07-28T05:47:52.605Z,78.75
2022-07-28T05:50:21.911Z,74.43
2022-07-28T05:52:49.252Z,72.41
2022-07-28T05:55:16.360Z,75.79
2022-07-28T05:57:43.561Z,76.14
2022-07-28T06:00:12.978Z,72.71
2022-07-28T06:02:40.372Z,73.66
2022-07-28T06:05:07.720Z,73.67
2022-07-28T06:07:43.722Z,75.15
2022-07-28T06:10:12.285Z,76.13
2022-07-28T06:12:40.938Z,72.15
2022-07-28T06:15:08.240Z,72.06
2022-07-28T06:17:34.617Z,74.30
2022-07-28T06:20:00.950Z,75.00
2022-07-28T06:22:27.305Z,73.25
2022-07-28T06:24:55.396Z,70.16
2022-07-28T06:27:21.768Z,70.86
2022-07-28T06:29:48.113Z,70.69
2022-07-28T06:32:16.507Z,70.31
2022-07-28T06:34:42.856Z,68.95
2022-07-28T06:37:09.385Z,68.23
2022-07-28T06:39:35.854Z,69.26
2022-07-28T06:42:02.283Z,70.72
2022-07-28T06:44:48.294Z,69.22
2022-07-28T06:47:15.156Z,67.86
2022-07-28T06:49:41.813Z,66.38
2022-07-28T06:52:08.294Z,65.38
2022-07-28T06:54:35.037Z,66.84
2022-07-28T06:57:01.565Z,66.68
2022-07-28T06:59:27.974Z,64.49
2022-07-28T07:01:54.482Z,63.79
2022-07-28T07:04:20.925Z,63.34
2022-07-28T07:06:47.511Z,63.61
2022-07-28T07:09:13.959Z,61.87
2022-07-28T07:11:41.172Z,61.25
2022-07-28T07:14:07.565Z,62.35
2022-07-28T07:16:35.148Z,62.47
2022-07-28T07:19:01.564Z,59.99
2022-07-28T07:21:33.459Z,60.78
2022-07-28T07:23:59.841Z,61.60
2022-07-28T07:26:26.205Z,61.78
2022-07-28T07:28:52.651Z,62.01
2022-07-28T07:31:19.075Z,61.23
2022-07-28T07:33:45.645Z,62.85
2022-07-28T07:36:12.017Z,60.28
2022-07-28T07:38:39.324Z,58.67
2022-07-28T07:41:05.823Z,59.49
2022-07-28T07:43:32.335Z,61.47
2022-07-28T07:45:59.623Z,59.31
2022-07-28T07:48:26.049Z,58.88
2022-07-28T07:50:54.231Z,59.92
2022-07-28T07:53:20.890Z,63.86
2022-07-28T07:55:47.433Z,63.80
2022-07-28T07:58:14.405Z,60.21
2022-07-28T08:00:40.772Z,61.24
2022-07-28T08:03:11.257Z,59.22
2022-07-28T08:05:40.372Z,63.99
2022-07-28T08:08:07.131Z,59.86
2022-07-28T08:10:34.582Z,57.30
2022-07-28T08:13:01.154Z,57.68
2022-07-28T08:15:27.600Z,61.13
2022-07-28T08:17:53.959Z,56.87
2022-07-28T08:20:20.569Z,57.47
2022-07-28T08:22:54.779Z,56.61
2022-07-28T08:25:21.741Z,56.37
2022-07-28T08:27:48.882Z,60.57
2022-07-28T08:30:16.964Z,60.22
2022-07-28T08:32:56.619Z,58.15
2022-07-28T08:35:34.345Z,56.36
2022-07-28T08:38:03.298Z,55.70
2022-07-28T08:40:32.249Z,59.98
2022-07-28T08:43:35.109Z,56.60
2022-07-28T08:46:04.098Z,54.98
2022-07-28T08:48:33.101Z,55.72
2022-07-28T08:51:02.481Z,53.71
2022-07-28T08:53:30.621Z,54.33
2022-07-28T08:56:03.821Z,54.21
2022-07-28T08:58:32.749Z,51.49
2022-07-28T09:00:59.964Z,50.25
2022-07-28T09:03:27.985Z,49.45
2022-07-28T09:05:55.845Z,49.14
2022-07-28T09:08:22.392Z,49.05
2022-07-28T09:10:49.988Z,48.29
2022-07-28T09:13:17.917Z,47.80
2022-07-28T09:15:48.763Z,46.13
2022-07-28T09:18:16.777Z,45.07
2022-07-28T09:20:44.228Z,47.24
2022-07-28T09:23:43.178Z,44.58
2022-07-28T09:26:12.093Z,44.43
2022-07-28T09:28:49.489Z,45.85
2022-07-28T09:31:17.315Z,45.76
2022-07-28T09:33:56.163Z,42.45
2022-07-28T09:36:23.286Z,42.82
2022-07-28T09:38:49.929Z,40.85
2022-07-28T09:41:18.901Z,40.00
2022-07-28T09:43:46.988Z,40.36
2022-07-28T09:46:22.907Z,39.17
2022-07-28T09:48:51.811Z,39.35
2022-07-28T09:51:20.856Z,37.54
2022-07-28T09:53:47.344Z,39.29
2022-07-28T09:56:14.727Z,36.90
2022-07-28T09:58:41.898Z,38.05
2022-07-28T10:01:13.969Z,38.22
2022-07-28T10:03:42.967Z,38.42
2022-07-28T10:06:15.746Z,35.91
2022-07-28T10:08:48.072Z,36.50
2022-07-28T10:11:20.778Z,39.27
2022-07-28T10:13:59.010Z,34.43
2022-07-28T10:16:28.173Z,35.13
2022-07-28T10:18:55.874Z,35.19
2022-07-28T10:21:24.431Z,35.10
2022-07-28T10:23:56.283Z,34.12
2022-07-28T10:26:31.290Z,36.30
2022-07-28T10:29:02.845Z,32.17
2022-07-28T10:31:49.885Z,33.96
2022-07-28T10:34:34.345Z,33.80
2022-07-28T10:37:04.076Z,32.97
2022-07-28T10:39:41.486Z,35.49
2022-07-28T10:42:11.640Z,31.67
2022-07-28T10:44:38.937Z,30.62
2022-07-28T10:47:18.226Z,31.38
2022-07-28T10:49:48.727Z,32.36
2022-07-28T10:52:45.909Z,29.19
2022-07-28T10:55:32.267Z,31.08
2022-07-28T10:58:19.017Z,34.24
2022-07-28T11:00:56.611Z,33.70
2022-07-28T11:03:44.970Z,34.09
2022-07-28T11:06:30.923Z,27.99
2022-07-28T11:08:59.957Z,29.17
2022-07-28T11:11:45.188Z,31.54
2022-07-28T11:14:24.703Z,30.92
2022-07-28T11:17:14.885Z,30.69
2022-07-28T11:20:07.040Z,25.84
2022-07-28T11:22:32.714Z,29.47
2022-07-28T11:25:20.011Z,29.83
2022-07-28T11:27:49.773Z,28.91
2022-07-28T11:30:16.147Z,28.94
2022-07-28T11:33:01.450Z,25.10
2022-07-28T11:35:29.513Z,27.53
2022-07-28T11:38:02.045Z,27.58
2022-07-28T11:40:42.132Z,29.23
2022-07-28T11:43:29.967Z,29.88
2022-07-28T11:46:02.553Z,28.71
2022-07-28T11:48:30.013Z,30.41
2022-07-28T11:51:02.410Z,31.41
2022-07-28T11:53:37.995Z,27.80
2022-07-28T11:56:09.886Z,27.09
2022-07-28T11:58:37.384Z,25.89
2022-07-28T12:01:17.235Z,26.89
2022-07-28T12:03:53.970Z,25.17
2022-07-28T12:06:33.995Z,29.04
2022-07-28T12:09:07.757Z,28.09
2022-07-28T12:11:40.894Z,27.22
2022-07-28T12:14:15.435Z,29.08
2022-07-28T12:16:44.134Z,31.05
2022-07-28T12:19:14.733Z,28.52
2022-07-28T12:21:46.234Z,26.49
2022-07-28T12:24:20.192Z,28.05
2022-07-28T12:26:49.886Z,26.57
2022-07-28T12:29:17.687Z,28.24
2022-07-28T12:32:05.111Z,28.15
2022-07-28T12:34:34.853Z,29.47
2022-07-28T12:37:04.903Z,27.64
2022-07-28T12:39:34.266Z,32.09
2022-07-28T12:42:03.449Z,33.54
2022-07-28T12:44:34.250Z,31.18
2022-07-28T12:47:01.158Z,32.41
2022-07-28T12:49:27.703Z,30.13
2022-07-28T12:51:54.196Z,28.95
2022-07-28T12:54:34.507Z,30.60
2022-07-28T12:57:01.296Z,34.54
2022-07-28T12:59:33.869Z,33.36
2022-07-28T13:02:02.762Z,33.56
2022-07-28T13:04:41.802Z,32.72
2022-07-28T13:07:24.366Z,29.77
2022-07-28T13:10:04.211Z,32.16
2022-07-28T13:12:30.974Z,32.26
2022-07-28T13:14:59.099Z,33.72
2022-07-28T13:17:31.466Z,31.98
2022-07-28T13:20:07.327Z,33.82
2022-07-28T13:22:33.705Z,35.01
2022-07-28T13:25:01.017Z,34.31
2022-07-28T13:27:28.636Z,32.42
2022-07-28T13:29:55.591Z,30.61
2022-07-28T13:32:22.030Z,35.36
2022-07-28T13:34:48.537Z,31.22
2022-07-28T13:37:15.277Z,32.19
2022-07-28T13:39:41.739Z,30.15
2022-07-28T13:42:08.431Z,33.24
2022-07-28T13:44:37.633Z,31.99
2022-07-28T13:47:05.864Z,30.14
2022-07-28T13:49:34.236Z,31.38
2022-07-28T13:52:01.577Z,31.59
2022-07-28T13:54:28.640Z,35.31
2022-07-28T13:57:14.117Z,37.71
2022-07-28T13:59:41.720Z,37.84
2022-07-28T14:02:15.610Z,30.51
2022-07-28T14:04:46.091Z,33.68
2022-07-28T14:07:15.402Z,33.23
2022-07-28T14:09:47.961Z,35.10
2022-07-28T14:12:14.441Z,36.28
2022-07-28T14:14:40.794Z,37.74
2022-07-28T14:17:40.118Z,33.55
2022-07-28T14:20:01.317Z,30.88
2022-07-28T14:22:27.982Z,32.04
2022-07-28T14:24:54.317Z,34.74
2022-07-28T14:27:23.587Z,34.86
2022-07-28T14:29:52.312Z,36.57
2022-07-28T14:32:18.734Z,37.07
2022-07-28T14:34:45.383Z,33.48
2022-07-28T14:37:11.764Z,31.80
2022-07-28T14:39:38.348Z,34.46
2022-07-28T14:42:06.085Z,32.94
2022-07-28T14:44:32.584Z,32.88
2022-07-28T14:46:59.023Z,35.15
2022-07-28T14:49:25.483Z,36.54
2022-07-28T14:51:51.983Z,33.88
2022-07-28T14:54:18.819Z,34.27
2022-07-28T14:56:45.559Z,34.14
2022-07-28T14:59:12.078Z,34.82
2022-07-28T15:01:38.519Z,33.75
2022-07-28T15:04:05.240Z,33.72
2022-07-28T15:06:31.829Z,34.25
2022-07-28T15:08:58.388Z,37.02
2022-07-28T15:11:24.829Z,37.31
2022-07-28T15:13:51.269Z,38.53
2022-07-28T15:16:17.907Z,39.01
2022-07-28T15:18:45.011Z,40.02
2022-07-28T15:21:17.777Z,39.39
2022-07-28T15:23:45.456Z,40.04
2022-07-28T15:26:12.820Z,40.51
2022-07-28T15:28:39.475Z,39.40
2022-07-28T15:31:08.473Z,40.11
2022-07-28T15:33:47.610Z,40.56
2022-07-28T15:36:14.626Z,39.75
2022-07-28T15:38:41.040Z,39.56
2022-07-28T15:41:07.797Z,40.27
2022-07-28T15:43:34.256Z,39.49
2022-07-28T15:46:05.528Z,41.08
2022-07-28T15:48:31.973Z,39.63
2022-07-28T15:50:58.369Z,40.15
2022-07-28T15:53:25.109Z,39.88
2022-07-28T15:55:52.058Z,40.93
2022-07-28T15:58:19.010Z,40.81
2022-07-28T16:00:45.949Z,40.98
2022-07-28T16:03:12.986Z,40.96
2022-07-28T16:05:39.714Z,40.86
2022-07-28T16:08:06.603Z,41.85
2022-07-28T16:10:33.128Z,41.20
2022-07-28T16:12:59.584Z,41.69
2022-07-28T16:15:26.947Z,42.00
2022-07-28T16:17:54.544Z,42.90
2022-07-28T16:20:21.573Z,42.37
2022-07-28T16:22:48.262Z,43.52
2022-07-28T16:25:20.227Z,41.59
2022-07-28T16:27:47.692Z,42.22
2022-07-28T16:30:14.896Z,43.00
2022-07-28T16:32:41.568Z,43.71
2022-07-28T16:35:08.569Z,42.48
2022-07-28T16:37:35.650Z,41.92
2022-07-28T16:40:03.559Z,43.27
2022-07-28T16:42:30.537Z,42.08
2022-07-28T16:44:57.647Z,43.54
2022-07-28T16:47:24.590Z,42.97
2022-07-28T16:49:50.963Z,43.54
2022-07-28T16:52:17.330Z,42.99
2022-07-28T16:54:43.754Z,42.83
2022-07-28T16:57:10.150Z,42.88
2022-07-28T16:59:45.803Z,44.24
2022-07-28T17:02:14.403Z,42.62
2022-07-28T17:04:40.783Z,43.56
2022-07-28T17:07:07.204Z,43.44
2022-07-28T17:09:33.594Z,43.00
2022-07-28T17:12:00.157Z,42.95
2022-07-28T17:14:26.530Z,43.77
2022-07-28T17:16:52.895Z,43.71
2022-07-28T17:19:21.385Z,42.73
2022-07-28T17:21:48.182Z,44.00
2022-07-28T17:24:14.878Z,43.51
2022-07-28T17:29:27.910Z,43.66
2022-07-28T17:31:54.317Z,43.68
2022-07-28T17:34:20.663Z,44.52
2022-07-28T17:36:48.062Z,42.79
2022-07-28T17:39:14.442Z,43.43
2022-07-28T17:41:40.950Z,43.77
2022-07-28T17:44:07.944Z,43.68
2022-07-28T17:46:37.745Z,43.23
2022-07-28T17:49:05.681Z,44.12
2022-07-28T17:51:32.204Z,43.46
2022-07-28T17:53:58.566Z,43.87
2022-07-28T17:56:25.935Z,43.80
2022-07-28T17:58:52.941Z,43.95
2022-07-28T18:01:19.336Z,43.86
2022-07-28T18:03:58.164Z,45.09
2022-07-28T18:06:33.424Z,44.52
2022-07-28T18:09:03.786Z,44.59
2022-07-28T18:11:35.178Z,44.62
2022-07-28T18:14:05.165Z,44.53
2022-07-28T18:16:34.082Z,44.66
2022-07-28T18:19:00.768Z,43.89
2022-07-28T18:21:27.124Z,44.54
2022-07-28T18:23:54.974Z,44.80
2022-07-28T18:26:22.020Z,45.21
2022-07-28T18:28:48.677Z,44.72
2022-07-28T18:31:15.142Z,44.56
2022-07-28T18:33:41.571Z,44.36
2022-07-28T18:36:08.080Z,45.01
2022-07-28T18:38:34.552Z,44.39
2022-07-28T18:41:01.133Z,45.51
2022-07-28T18:43:27.705Z,45.31
2022-07-28T18:45:54.141Z,45.32
2022-07-28T18:48:20.747Z,45.30
2022-07-28T18:50:47.133Z,44.99
2022-07-28T18:53:13.495Z,45.39
2022-07-28T18:55:40.157Z,44.72
2022-07-28T18:58:06.551Z,45.33
2022-07-28T19:00:33.677Z,45.87
2022-07-28T19:03:00.169Z,45.41
2022-07-28T19:05:26.752Z,44.67
2022-07-28T19:08:03.045Z,45.65
2022-07-28T19:10:29.437Z,45.28
2022-07-28T19:12:55.854Z,44.78
2022-07-28T19:15:22.239Z,44.90
2022-07-28T19:18:10.093Z,45.05
2022-07-28T19:20:35.402Z,45.98
2022-07-28T19:23:05.094Z,45.38
2022-07-28T19:25:32.066Z,45.00
2022-07-28T19:27:58.443Z,45.60
2022-07-28T19:30:24.867Z,45.83
2022-07-28T19:32:51.234Z,45.83
2022-07-28T19:35:17.621Z,45.12
2022-07-28T19:37:44.861Z,45.73
2022-07-28T19:40:11.794Z,45.36
2022-07-28T19:42:38.182Z,45.97
2022-07-28T19:45:06.038Z,45.77
2022-07-28T19:47:32.558Z,46.34
2022-07-28T19:50:05.141Z,46.19
2022-07-28T19:52:31.826Z,46.46
2022-07-28T19:54:58.216Z,46.32
2022-07-28T19:57:25.259Z,45.97
2022-07-28T19:59:51.617Z,45.80
2022-07-28T20:02:18.084Z,46.22
2022-07-28T20:04:44.629Z,45.79
2022-07-28T20:07:11.033Z,45.60
2022-07-28T20:09:37.418Z,45.94
2022-07-28T20:12:04.094Z,46.13
2022-07-28T20:14:34.147Z,46.10
2022-07-28T20:17:00.629Z,46.90
2022-07-28T20:19:27.122Z,46.37
2022-07-28T20:21:53.512Z,46.31
2022-07-28T20:24:20.009Z,46.02
2022-07-28T20:26:46.485Z,46.58
2022-07-28T20:29:12.984Z,47.06
2022-07-28T20:31:39.439Z,46.33
2022-07-28T20:34:06.793Z,46.50
2022-07-28T20:36:35.943Z,46.78
2022-07-28T20:39:11.520Z,48.02
2022-07-28T20:41:48.912Z,47.24
2022-07-28T20:44:30.565Z,46.62
2022-07-28T20:47:02.140Z,47.34
2022-07-28T20:49:29.422Z,47.83
2022-07-28T20:51:57.768Z,47.24
2022-07-28T20:54:25.557Z,47.44
2022-07-28T20:56:51.898Z,47.24
2022-07-28T20:59:18.370Z,47.70
2022-07-28T21:01:44.879Z,47.99
2022-07-28T21:04:11.877Z,48.20
2022-07-28T21:06:38.991Z,48.26
2022-07-28T21:09:18.021Z,47.56
2022-07-28T21:11:44.370Z,47.30
2022-07-28T21:14:10.718Z,47.72
2022-07-28T21:16:37.143Z,49.09
2022-07-28T21:19:04.385Z,48.37
2022-07-28T21:21:30.895Z,48.26
2022-07-28T21:23:57.302Z,49.22
2022-07-28T21:26:23.687Z,48.90
2022-07-28T21:29:08.398Z,48.71
2022-07-28T21:31:34.791Z,49.49
2022-07-28T21:34:21.147Z,49.45
2022-07-28T21:36:47.622Z,49.22
2022-07-28T21:39:14.511Z,48.94
2022-07-28T21:41:41.010Z,49.60
2022-07-28T21:44:07.392Z,49.53
2022-07-28T21:46:33.790Z,49.83
2022-07-28T21:49:00.621Z,49.88
2022-07-28T21:51:29.152Z,49.58
2022-07-28T21:53:55.632Z,49.51
2022-07-28T21:56:22.113Z,49.83
2022-07-28T21:58:48.547Z,49.53
2022-07-28T22:01:15.546Z,50.00
2022-07-28T22:03:43.369Z,49.58
2022-07-28T22:06:09.978Z,50.33
2022-07-28T22:08:37.245Z,50.91
2022-07-28T22:11:03.622Z,50.47
2022-07-28T22:13:30.153Z,50.47
2022-07-28T22:15:56.570Z,50.92
2022-07-28T22:18:22.935Z,50.78
2022-07-28T22:20:49.335Z,51.44
2022-07-28T22:23:28.653Z,51.84
2022-07-28T22:25:55.242Z,50.92
2022-07-28T22:28:29.596Z,51.74
2022-07-28T22:30:56.580Z,51.36
2022-07-28T22:33:22.962Z,51.45
2022-07-28T22:35:49.349Z,52.16
2022-07-28T22:38:15.733Z,51.18
2022-07-28T22:40:42.258Z,51.67
2022-07-28T22:43:08.629Z,51.56
2022-07-28T22:45:50.468Z,52.03
2022-07-28T22:48:18.546Z,51.98
2022-07-28T22:50:44.936Z,51.64
2022-07-28T22:53:11.308Z,52.32
2022-07-28T22:55:37.661Z,52.14
2022-07-28T22:58:05.575Z,52.43
2022-07-28T23:00:32.529Z,51.86
2022-07-28T23:03:00.247Z,52.07
2022-07-28T23:05:28.515Z,52.24
2022-07-28T23:07:57.363Z,51.99
2022-07-28T23:10:25.202Z,52.03
2022-07-28T23:12:51.564Z,51.72
2022-07-28T23:15:18.113Z,51.65
2022-07-28T23:17:44.542Z,51.79
2022-07-28T23:20:11.391Z,52.78
2022-07-28T23:22:38.046Z,52.11
2022-07-28T23:25:05.170Z,52.71
2022-07-28T23:27:31.560Z,52.71
2022-07-28T23:29:57.977Z,52.79
2022-07-28T23:32:24.355Z,52.32
2022-07-28T23:34:50.806Z,52.13
2022-07-28T23:37:17.353Z,52.21
2022-07-28T23:39:43.854Z,52.34
2022-07-28T23:42:10.279Z,52.56
2022-07-28T23:44:37.923Z,52.51
2022-07-28T23:47:04.463Z,52.18
2022-07-28T23:49:31.010Z,52.63
2022-07-28T23:51:57.447Z,52.57
2022-07-28T23:54:23.982Z,53.00
2022-07-28T23:56:51.877Z,52.43
2022-07-28T23:59:18.321Z,53.07
